Airfield :







YOU CAN JOIN US ON...

 
LOGIN :

Register | Disclaimer

   EN    FR    IT 

 









Legend :    VFR   Marginal VFR   IFR   Intensive IFR   Very Intensive IFR
Visi :
Ceiling :
>= 8 km
>= 3000ft
5 to 8 km
1000 to 3000 ft
1500m to 5 km
500 to 1000 ft
800 to 1500m
200 to 500 ft
< 800m
< 200 ft
Symbols :   Thunderstorms  Fog  Heavy snow  Heavy precipitations  Wind > 20 kt






- Airport Elevation : 9 ft
- IATA code : SJU


TJSJ - Luis Munoz Marin Int.

CURRENT METAR :
  • 151756Z 06015KT 10SM SCT025 SCT035 32/23 A2996 RMK AO2 SLP145 60001 T03170228 10317 20283 58014

EXPIRED METARs :
  • 151656Z 07012G19KT 10SM SCT025 SCT035 31/23 A2998 RMK AO2 SLP152 T03110233
  • 151556Z 06014G18KT 10SM FEW022 SCT035 31/23 A2999 RMK AO2 SLP155 T03110233

TAF TJSJ
Valid from the 15 at 18:00 until the 16 at 18:00 UTC


151739Z 1518/1618 06015KT P6SM VCSH FEW024 SCT050
FM152330 07006KT P6SM VCSH SCT025 SCT050 SCT080
FM161400 06012KT P6SM FEW035 SCT050
TJZS FIR / North America



MET'MAP, your aeronautical weather chart ! - Copyright ORBIFLY December 2007 - Disclaimer

ORBIFLY MET'MAP TEAM :

Programming & Development : Alexandra Zaïnal
Concept & original design : Baudouin d'Aumeries
Assistance for programming : Marc-Olivier Méhu
Technical & hardware support : Manuel Goepfert

Contact : metmap@orbifly.com




SOURCES & CREDITS :

   NOAA